Time,TemperatureF,DewpointF,PressureIn,WindDirection,WindDirectionDegrees,WindSpeedMPH,WindSpeedGustMPH,Humidity,HourlyPrecipIn,Conditions,Clouds,dailyrainin,SolarRadiationWatts/m^2,SoftwareType,DateUTC
2013-07-14 00:02:00,63.0,62.0,-100.00,SSW,195,1.0,3.0,98,0.00,,,0.00,0.000000,,2013-07-14 04:02:00,
2013-07-14 00:11:00,63.0,62.0,-100.00,SSW,195,1.0,3.0,98,0.00,,,0.00,0.000000,,2013-07-14 04:11:00,
2013-07-14 00:22:00,63.0,62.0,-100.00,SSW,195,1.0,3.0,98,0.00,,,0.00,0.000000,,2013-07-14 04:22:00,
2013-07-14 00:54:00,62.0,61.0,-100.00,West,269,1.0,3.0,98,0.00,,,0.00,0.000000,,2013-07-14 04:54:00,
2013-07-14 01:02:00,62.0,61.0,-100.00,West,269,1.0,3.0,98,0.00,,,0.00,0.000000,,2013-07-14 05:02:00,
2013-07-14 01:11:00,62.0,61.0,-100.00,West,269,1.0,3.0,98,0.00,,,0.00,0.000000,,2013-07-14 05:11:00,
2013-07-14 01:23:00,62.0,61.0,-100.00,West,269,1.0,3.0,98,0.00,,,0.00,0.000000,,2013-07-14 05:23:00,
2013-07-14 01:53:00,61.0,61.0,-100.00,SW,216,0.0,2.0,99,0.00,,,0.00,0.000000,,2013-07-14 05:53:00,
2013-07-14 02:01:00,61.0,61.0,-100.00,SW,216,0.0,2.0,99,0.00,,,0.00,0.000000,,2013-07-14 06:01:00,
2013-07-14 02:12:00,61.0,61.0,-100.00,SW,216,0.0,2.0,99,0.00,,,0.00,0.000000,,2013-07-14 06:12:00,
2013-07-14 02:22:00,61.0,61.0,-100.00,SW,216,0.0,2.0,99,0.00,,,0.00,0.000000,,2013-07-14 06:22:00,
2013-07-14 02:53:00,60.0,60.0,-100.00,SSE,160,1.0,2.0,99,0.00,,,0.00,0.000000,,2013-07-14 06:53:00,
2013-07-14 03:02:00,60.0,60.0,-100.00,SSE,160,1.0,2.0,99,0.00,,,0.00,0.000000,,2013-07-14 07:02:00,
2013-07-14 03:12:00,60.0,60.0,-100.00,SSE,160,1.0,2.0,99,0.00,,,0.00,0.000000,,2013-07-14 07:12:00,
2013-07-14 03:22:00,60.0,60.0,-100.00,SSE,160,1.0,2.0,99,0.00,,,0.00,0.000000,,2013-07-14 07:22:00,
2013-07-14 03:53:00,60.0,60.0,-100.00,SSE,152,1.0,2.0,100,0.00,,,0.00,0.000000,,2013-07-14 07:53:00,
2013-07-14 04:01:00,60.0,60.0,-100.00,SSE,152,1.0,2.0,100,0.00,,,0.00,0.000000,,2013-07-14 08:01:00,
2013-07-14 04:11:00,60.0,60.0,-100.00,SSE,152,1.0,2.0,100,0.00,,,0.00,0.000000,,2013-07-14 08:11:00,
2013-07-14 04:22:00,60.0,60.0,-100.00,SSE,152,1.0,2.0,100,0.00,,,0.00,0.000000,,2013-07-14 08:22:00,
2013-07-14 04:53:00,59.0,59.0,-100.00,SE,140,1.0,3.0,100,0.00,,,0.00,0.000000,,2013-07-14 08:53:00,
2013-07-14 05:01:00,59.0,59.0,-100.00,SE,140,1.0,3.0,100,0.00,,,0.00,0.000000,,2013-07-14 09:01:00,
2013-07-14 05:11:00,59.0,59.0,-100.00,SE,140,1.0,3.0,100,0.00,,,0.00,0.000000,,2013-07-14 09:11:00,
2013-07-14 05:22:00,59.0,59.0,-100.00,SE,140,1.0,3.0,100,0.00,,,0.00,0.000000,,2013-07-14 09:22:00,
2013-07-14 05:53:00,59.0,59.0,-100.00,ESE,119,0.0,2.0,100,0.00,,,0.00,1.000000,,2013-07-14 09:53:00,
2013-07-14 06:01:00,59.0,59.0,-100.00,ESE,119,0.0,2.0,100,0.00,,,0.00,1.000000,,2013-07-14 10:01:00,
2013-07-14 06:12:00,59.0,59.0,-100.00,ESE,119,0.0,2.0,100,0.00,,,0.00,1.000000,,2013-07-14 10:12:00,
2013-07-14 06:22:00,59.0,59.0,-100.00,ESE,119,0.0,2.0,100,0.00,,,0.00,1.000000,,2013-07-14 10:22:00,
2013-07-14 06:53:00,61.0,61.0,-100.00,WNW,303,0.0,2.0,100,0.00,,,0.00,26.000000,,2013-07-14 10:53:00,
2013-07-14 07:02:00,61.0,61.0,-100.00,WNW,303,0.0,2.0,100,0.00,,,0.00,26.000000,,2013-07-14 11:02:00,
2013-07-14 07:11:00,61.0,61.0,-100.00,WNW,303,0.0,2.0,100,0.00,,,0.00,26.000000,,2013-07-14 11:11:00,
2013-07-14 07:22:00,61.0,61.0,-100.00,WNW,303,0.0,2.0,100,0.00,,,0.00,26.000000,,2013-07-14 11:22:00,
2013-07-14 07:53:00,62.0,62.0,-100.00,NW,309,0.0,2.0,100,0.00,,,0.00,58.000000,,2013-07-14 11:53:00,
2013-07-14 08:02:00,62.0,62.0,-100.00,NW,309,0.0,2.0,100,0.00,,,0.00,58.000000,,2013-07-14 12:02:00,
2013-07-14 08:12:00,62.0,62.0,-100.00,NW,309,0.0,2.0,100,0.00,,,0.00,58.000000,,2013-07-14 12:12:00,
2013-07-14 08:22:00,62.0,62.0,-100.00,NW,309,0.0,2.0,100,0.00,,,0.00,58.000000,,2013-07-14 12:22:00,
2013-07-14 08:53:00,66.0,65.0,-100.00,NNW,339,1.0,2.0,96,0.00,,,0.00,122.000000,,2013-07-14 12:53:00,
2013-07-14 09:01:00,66.0,65.0,-100.00,NNW,339,1.0,2.0,96,0.00,,,0.00,122.000000,,2013-07-14 13:01:00,
2013-07-14 09:11:00,66.0,65.0,-100.00,NNW,339,1.0,2.0,96,0.00,,,0.00,122.000000,,2013-07-14 13:11:00,
2013-07-14 09:22:00,66.0,65.0,-100.00,NNW,339,1.0,2.0,96,0.00,,,0.00,122.000000,,2013-07-14 13:22:00,
2013-07-14 09:53:00,72.0,68.0,-100.00,West,279,1.0,3.0,86,0.00,,,0.00,247.000000,,2013-07-14 13:53:00,
2013-07-14 10:02:00,72.0,68.0,-100.00,West,279,1.0,3.0,86,0.00,,,0.00,247.000000,,2013-07-14 14:02:00,
2013-07-14 10:11:00,72.0,68.0,-100.00,West,279,1.0,3.0,86,0.00,,,0.00,247.000000,,2013-07-14 14:11:00,
2013-07-14 10:23:00,72.0,68.0,-100.00,West,279,1.0,3.0,86,0.00,,,0.00,247.000000,,2013-07-14 14:23:00,
2013-07-14 10:53:00,76.0,67.0,-100.00,SW,227,3.0,5.0,75,0.00,,,0.00,348.000000,,2013-07-14 14:53:00,
2013-07-14 11:01:00,76.0,67.0,-100.00,SW,227,3.0,5.0,75,0.00,,,0.00,348.000000,,2013-07-14 15:01:00,
2013-07-14 11:12:00,76.0,67.0,-100.00,SW,227,3.0,5.0,75,0.00,,,0.00,348.000000,,2013-07-14 15:12:00,
2013-07-14 11:22:00,76.0,67.0,-100.00,SW,227,3.0,5.0,75,0.00,,,0.00,348.000000,,2013-07-14 15:22:00,
2013-07-14 11:53:00,82.0,68.0,-100.00,SW,219,2.0,8.0,62,0.00,,,0.00,740.000000,,2013-07-14 15:53:00,
2013-07-14 12:01:00,82.0,68.0,-100.00,SW,219,2.0,8.0,62,0.00,,,0.00,740.000000,,2013-07-14 16:01:00,
2013-07-14 12:11:00,82.0,68.0,-100.00,SW,219,2.0,8.0,62,0.00,,,0.00,740.000000,,2013-07-14 16:11:00,
2013-07-14 12:22:00,82.0,68.0,-100.00,SW,219,2.0,8.0,62,0.00,,,0.00,740.000000,,2013-07-14 16:22:00,
2013-07-14 12:54:00,81.0,69.0,-100.00,SW,220,2.0,8.0,66,0.00,,,0.00,617.000000,,2013-07-14 16:54:00,
2013-07-14 13:03:00,81.0,69.0,-100.00,SW,220,2.0,8.0,66,0.00,,,0.00,617.000000,,2013-07-14 17:03:00,
2013-07-14 13:12:00,81.0,69.0,-100.00,SW,220,2.0,8.0,66,0.00,,,0.00,617.000000,,2013-07-14 17:12:00,
2013-07-14 13:22:00,81.0,69.0,-100.00,SW,220,2.0,8.0,66,0.00,,,0.00,617.000000,,2013-07-14 17:22:00,
2013-07-14 13:53:00,85.0,66.0,-100.00,West,262,2.0,8.0,53,0.00,,,0.00,761.000000,,2013-07-14 17:53:00,
2013-07-14 14:01:00,85.0,66.0,-100.00,West,262,2.0,8.0,53,0.00,,,0.00,761.000000,,2013-07-14 18:01:00,
2013-07-14 14:11:00,85.0,66.0,-100.00,West,262,2.0,8.0,53,0.00,,,0.00,761.000000,,2013-07-14 18:11:00,
2013-07-14 14:22:00,85.0,66.0,-100.00,West,262,2.0,8.0,53,0.00,,,0.00,761.000000,,2013-07-14 18:22:00,
2013-07-14 14:52:00,86.0,66.0,-100.00,WNW,295,4.0,11.0,52,0.00,,,0.00,841.000000,,2013-07-14 18:52:00,
2013-07-14 15:02:00,86.0,66.0,-100.00,WNW,295,4.0,11.0,52,0.00,,,0.00,841.000000,,2013-07-14 19:02:00,
2013-07-14 15:12:00,86.0,66.0,-100.00,WNW,295,4.0,11.0,52,0.00,,,0.00,841.000000,,2013-07-14 19:12:00,
2013-07-14 15:22:00,86.0,66.0,-100.00,WNW,295,4.0,11.0,52,0.00,,,0.00,841.000000,,2013-07-14 19:22:00,
2013-07-14 15:53:00,88.0,66.0,-100.00,WNW,287,4.0,10.0,49,0.00,,,0.00,874.000000,,2013-07-14 19:53:00,
2013-07-14 16:02:00,88.0,66.0,-100.00,WNW,287,4.0,10.0,49,0.00,,,0.00,874.000000,,2013-07-14 20:02:00,
2013-07-14 16:11:00,88.0,66.0,-100.00,WNW,287,4.0,10.0,49,0.00,,,0.00,874.000000,,2013-07-14 20:11:00,
2013-07-14 16:22:00,88.0,66.0,-100.00,WNW,287,4.0,10.0,49,0.00,,,0.00,874.000000,,2013-07-14 20:22:00,
2013-07-14 16:53:00,86.0,64.0,-100.00,NW,307,5.0,12.0,48,0.00,,,0.00,737.000000,,2013-07-14 20:53:00,
2013-07-14 17:02:00,86.0,64.0,-100.00,NW,307,5.0,12.0,48,0.00,,,0.00,737.000000,,2013-07-14 21:02:00,
2013-07-14 17:11:00,86.0,64.0,-100.00,NW,307,5.0,12.0,48,0.00,,,0.00,737.000000,,2013-07-14 21:11:00,
2013-07-14 17:22:00,86.0,64.0,-100.00,NW,307,5.0,12.0,48,0.00,,,0.00,737.000000,,2013-07-14 21:22:00,
2013-07-14 17:53:00,86.0,65.0,-100.00,WNW,291,4.0,10.0,50,0.00,,,0.00,538.000000,,2013-07-14 21:53:00,
2013-07-14 18:02:00,86.0,65.0,-100.00,WNW,291,4.0,10.0,50,0.00,,,0.00,538.000000,,2013-07-14 22:02:00,
2013-07-14 18:11:00,86.0,65.0,-100.00,WNW,291,4.0,10.0,50,0.00,,,0.00,538.000000,,2013-07-14 22:11:00,
2013-07-14 18:22:00,86.0,65.0,-100.00,WNW,291,4.0,10.0,50,0.00,,,0.00,538.000000,,2013-07-14 22:22:00,
2013-07-14 18:53:00,84.0,64.0,-100.00,West,279,4.0,10.0,52,0.00,,,0.00,376.000000,,2013-07-14 22:53:00,
2013-07-14 19:02:00,84.0,64.0,-100.00,West,279,4.0,10.0,52,0.00,,,0.00,376.000000,,2013-07-14 23:02:00,
2013-07-14 19:11:00,84.0,64.0,-100.00,West,279,4.0,10.0,52,0.00,,,0.00,376.000000,,2013-07-14 23:11:00,
2013-07-14 19:22:00,84.0,64.0,-100.00,West,279,4.0,10.0,52,0.00,,,0.00,376.000000,,2013-07-14 23:22:00,
2013-07-14 19:53:00,82.0,66.0,-100.00,WNW,292,2.0,9.0,58,0.00,,,0.00,220.000000,,2013-07-14 23:53:00,
2013-07-14 20:02:00,82.0,66.0,-100.00,WNW,292,2.0,9.0,58,0.00,,,0.00,220.000000,,2013-07-15 00:02:00,
2013-07-14 20:11:00,82.0,66.0,-100.00,WNW,292,2.0,9.0,58,0.00,,,0.00,220.000000,,2013-07-15 00:11:00,
2013-07-14 20:22:00,82.0,66.0,-100.00,WNW,292,2.0,9.0,58,0.00,,,0.00,220.000000,,2013-07-15 00:22:00,
2013-07-14 20:53:00,73.0,68.0,-100.00,SE,145,2.0,4.0,84,0.00,,,0.00,56.000000,,2013-07-15 00:53:00,
2013-07-14 21:01:00,73.0,68.0,-100.00,SE,145,2.0,4.0,84,0.00,,,0.00,56.000000,,2013-07-15 01:01:00,
2013-07-14 21:11:00,73.0,68.0,-100.00,SE,145,2.0,4.0,84,0.00,,,0.00,56.000000,,2013-07-15 01:11:00,
2013-07-14 21:22:00,73.0,68.0,-100.00,SE,145,2.0,4.0,84,0.00,,,0.00,56.000000,,2013-07-15 01:22:00,
2013-07-14 21:53:00,68.0,66.0,-100.00,SE,132,2.0,3.0,93,0.00,,,0.00,2.000000,,2013-07-15 01:53:00,
2013-07-14 22:02:00,68.0,66.0,-100.00,SE,132,2.0,3.0,93,0.00,,,0.00,2.000000,,2013-07-15 02:02:00,
2013-07-14 22:11:00,68.0,66.0,-100.00,SE,132,2.0,3.0,93,0.00,,,0.00,2.000000,,2013-07-15 02:11:00,
2013-07-14 22:22:00,68.0,66.0,-100.00,SE,132,2.0,3.0,93,0.00,,,0.00,2.000000,,2013-07-15 02:22:00,
2013-07-14 22:53:00,66.0,65.0,-100.00,SE,126,2.0,3.0,97,0.00,,,0.00,0.000000,,2013-07-15 02:53:00,
2013-07-14 23:02:00,66.0,65.0,-100.00,SE,126,2.0,3.0,97,0.00,,,0.00,0.000000,,2013-07-15 03:02:00,
2013-07-14 23:11:00,66.0,65.0,-100.00,SE,126,2.0,3.0,97,0.00,,,0.00,0.000000,,2013-07-15 03:11:00,
2013-07-14 23:22:00,66.0,65.0,-100.00,SE,126,2.0,3.0,97,0.00,,,0.00,0.000000,,2013-07-15 03:22:00,
2013-07-14 23:53:00,65.0,64.0,-100.00,SE,140,1.0,3.0,98,0.00,,,0.00,0.000000,,2013-07-15 03:53:00,